Time;durP1;ratioP1;P1;durP2;ratioP2;P2;SDS_P1;SDS_P2;PMS_P1;PMS_P2;Temp;Humidity;BMP_temperature;BMP_pressure;BME280_temperature;BME280_humidity;BME280_pressure;Samples;Min_cycle;Max_cycle;Signal;HPM_P1;HPM_P2
2022/09/04 00:01:08;;;;;;;58.33;52.30;;;;;;;;;;4897836;29;20483;-43
2022/09/04 00:03:34;;;;;;;58.53;52.27;;;;;;;;;;4893737;29;20317;-43
2022/09/04 00:06:04;;;;;;;60.03;53.70;;;;;;;;;;4891964;29;20281;-43
2022/09/04 00:08:42;;;;;;;65.50;58.50;;;;;;;;;;4889717;29;20187;-43
2022/09/04 00:11:30;;;;;;;64.57;57.53;;;;;;;;;;4891404;29;20180;-41
2022/09/04 00:14:08;;;;;;;55.10;49.50;;;;;;;;;;4892605;29;20275;-42
2022/09/04 00:16:44;;;;;;;55.10;49.27;;;;;;;;;;4895475;29;20211;-42
2022/09/04 00:19:15;;;;;;;58.57;52.47;;;;;;;;;;4895220;29;20191;-41
2022/09/04 00:21:58;;;;;;;60.83;54.23;;;;;;;;;;4892070;29;20172;-40
2022/09/04 00:24:28;;;;;;;66.27;59.10;;;;;;;;;;4893412;29;20648;-40
2022/09/04 00:26:57;;;;;;;55.10;49.23;;;;;;;;;;4895891;29;20180;-41
2022/09/04 00:29:26;;;;;;;58.27;52.17;;;;;;;;;;4887798;29;20717;-41
2022/09/04 00:32:17;;;;;;;62.80;56.10;;;;;;;;;;4889274;29;20203;-42
2022/09/04 00:34:49;;;;;;;60.20;54.00;;;;;;;;;;4907643;28;20731;-42
2022/09/04 00:37:20;;;;;;;63.73;56.80;;;;;;;;;;4893527;29;20628;-40
2022/09/04 00:39:46;;;;;;;59.83;53.33;;;;;;;;;;4894002;29;20169;-42
2022/09/04 00:42:12;;;;;;;60.47;54.10;;;;;;;;;;4893567;29;20523;-41
2022/09/04 00:45:03;;;;;;;69.20;61.80;;;;;;;;;;4896832;29;20235;-42
2022/09/04 00:47:29;;;;;;;62.17;55.60;;;;;;;;;;4901897;29;20452;-42
2022/09/04 00:50:15;;;;;;;60.40;54.10;;;;;;;;;;4897945;29;20188;-42
2022/09/04 00:52:44;;;;;;;59.17;52.90;;;;;;;;;;4896530;29;20570;-42
2022/09/04 00:55:23;;;;;;;63.67;56.87;;;;;;;;;;4896995;29;20347;-42
2022/09/04 00:57:53;;;;;;;58.70;52.47;;;;;;;;;;4899906;29;20644;-41
2022/09/04 01:00:20;;;;;;;59.97;53.53;;;;;;;;;;4899162;29;20184;-40
2022/09/04 01:02:47;;;;;;;59.17;52.87;;;;;;;;;;4897232;29;20660;-42
2022/09/04 01:05:22;;;;;;;59.27;53.07;;;;;;;;;;4893147;29;20777;-42
2022/09/04 01:08:09;;;;;;;61.00;54.77;;;;;;;;;;4897763;29;20358;-41
2022/09/04 01:10:47;;;;;;;64.70;58.10;;;;;;;;;;4895612;29;20180;-42
2022/09/04 01:13:14;;;;;;;71.90;64.10;;;;;;;;;;4895989;29;20506;-42
2022/09/04 01:15:45;;;;;;;71.20;63.80;;;;;;;;;;4893537;29;20271;-40
2022/09/04 01:18:14;;;;;;;80.17;71.33;;;;;;;;;;4897783;29;20606;-41
2022/09/04 01:20:53;;;;;;;72.40;64.57;;;;;;;;;;4896969;29;20523;-40
2022/09/04 01:23:30;;;;;;;65.67;58.23;;;;;;;;;;4893014;29;20212;-42
2022/09/04 01:25:56;;;;;;;77.03;68.87;;;;;;;;;;4894874;29;20231;-42
2022/09/04 01:28:27;;;;;;;84.20;74.97;;;;;;;;;;4899687;29;20188;-41
2022/09/04 01:31:00;;;;;;;74.57;66.40;;;;;;;;;;4900308;28;20629;-42
2022/09/04 01:33:27;;;;;;;79.27;70.60;;;;;;;;;;4894159;29;20963;-40
2022/09/04 01:36:05;;;;;;;72.53;64.57;;;;;;;;;;4892020;29;20187;-41
2022/09/04 01:38:42;;;;;;;85.77;72.70;;;;;;;;;;4894907;29;20666;-42
2022/09/04 01:41:27;;;;;;;75.57;66.63;;;;;;;;;;4899210;29;20176;-41
2022/09/04 01:43:53;;;;;;;79.17;70.10;;;;;;;;;;4897184;29;20701;-42
2022/09/04 01:46:34;;;;;;;78.83;70.17;;;;;;;;;;4895012;29;20696;-41
2022/09/04 01:49:00;;;;;;;86.33;74.27;;;;;;;;;;4893062;28;20283;-42
2022/09/04 01:51:29;;;;;;;80.60;71.80;;;;;;;;;;4897262;29;20176;-42
2022/09/04 01:54:16;;;;;;;75.10;67.13;;;;;;;;;;4893987;29;20319;-42
2022/09/04 01:56:51;;;;;;;67.97;60.60;;;;;;;;;;4890476;29;20180;-41
2022/09/04 01:59:29;;;;;;;68.53;61.40;;;;;;;;;;4893240;28;20183;-42
2022/09/04 02:02:05;;;;;;;80.87;71.93;;;;;;;;;;4891932;28;20184;-40
2022/09/04 02:04:40;;;;;;;70.90;63.20;;;;;;;;;;4895363;29;20667;-42
2022/09/04 02:07:26;;;;;;;79.97;71.27;;;;;;;;;;4889472;29;20359;-42
2022/09/04 02:10:07;;;;;;;88.00;75.80;;;;;;;;;;4894666;29;20180;-41
2022/09/04 02:12:34;;;;;;;88.23;77.43;;;;;;;;;;4903909;28;20184;-42
2022/09/04 02:15:19;;;;;;;80.33;71.60;;;;;;;;;;4898013;29;20228;-42
2022/09/04 02:18:01;;;;;;;87.00;75.57;;;;;;;;;;4894941;29;20791;-40
2022/09/04 02:20:29;;;;;;;74.60;66.57;;;;;;;;;;4904266;28;20196;-41
2022/09/04 02:23:13;;;;;;;65.87;58.83;;;;;;;;;;4893614;29;20547;-42
2022/09/04 02:25:49;;;;;;;70.47;62.90;;;;;;;;;;4898027;29;20562;-42
2022/09/04 02:28:21;;;;;;;67.07;60.00;;;;;;;;;;4894583;29;20331;-42
2022/09/04 02:31:16;;;;;;;73.10;65.17;;;;;;;;;;4894099;28;20638;-41
2022/09/04 02:33:57;;;;;;;74.43;66.07;;;;;;;;;;4900714;28;20196;-42
2022/09/04 02:36:29;;;;;;;68.10;60.67;;;;;;;;;;4899143;29;20256;-41
2022/09/04 02:39:02;;;;;;;64.67;57.87;;;;;;;;;;4897389;29;20315;-40
2022/09/04 02:41:39;;;;;;;73.27;65.07;;;;;;;;;;4894892;29;20525;-42
2022/09/04 02:44:26;;;;;;;61.37;54.70;;;;;;;;;;4889980;29;20187;-41
2022/09/04 02:46:52;;;;;;;62.37;55.87;;;;;;;;;;4898573;28;20283;-42
2022/09/04 02:49:23;;;;;;;60.97;54.47;;;;;;;;;;4895879;29;20217;-42
2022/09/04 02:52:08;;;;;;;65.83;58.73;;;;;;;;;;4888499;29;20531;-42
2022/09/04 02:54:43;;;;;;;68.67;61.33;;;;;;;;;;4892626;29;20180;-42
2022/09/04 02:57:13;;;;;;;71.67;63.47;;;;;;;;;;4893894;29;20255;-41
2022/09/04 02:59:58;;;;;;;74.37;66.20;;;;;;;;;;4894113;29;20514;-41
2022/09/04 03:02:30;;;;;;;71.13;63.43;;;;;;;;;;4892781;29;20710;-42
2022/09/04 03:05:03;;;;;;;69.63;62.33;;;;;;;;;;4892955;29;20184;-41
2022/09/04 03:07:34;;;;;;;81.57;71.27;;;;;;;;;;4891669;29;20184;-42
2022/09/04 03:10:20;;;;;;;67.27;60.07;;;;;;;;;;4897035;29;20195;-42
2022/09/04 03:12:46;;;;;;;71.40;63.33;;;;;;;;;;4889302;29;20192;-40
2022/09/04 03:15:20;;;;;;;63.93;57.03;;;;;;;;;;4890672;29;20247;-41
2022/09/04 03:17:57;;;;;;;69.43;61.90;;;;;;;;;;4893731;29;20400;-42
2022/09/04 03:20:25;;;;;;;66.73;59.40;;;;;;;;;;4893129;29;21030;-42
2022/09/04 03:22:55;;;;;;;75.13;64.07;;;;;;;;;;4895531;29;20304;-41
2022/09/04 03:25:33;;;;;;;63.23;55.53;;;;;;;;;;4890284;28;20769;-42
2022/09/04 03:28:00;;;;;;;66.43;59.23;;;;;;;;;;4893680;29;20484;-42
2022/09/04 03:30:27;;;;;;;68.50;61.07;;;;;;;;;;4894599;29;20184;-42
2022/09/04 03:32:53;;;;;;;60.23;53.90;;;;;;;;;;4909465;28;20191;-42
2022/09/04 03:35:19;;;;;;;59.63;53.37;;;;;;;;;;4891350;29;20176;-42
2022/09/04 03:37:58;;;;;;;62.40;55.83;;;;;;;;;;4893154;29;20701;-40
2022/09/04 03:40:33;;;;;;;67.80;60.67;;;;;;;;;;4891073;29;20732;-42
2022/09/04 03:43:05;;;;;;;66.37;59.27;;;;;;;;;;4895698;29;20202;-42
2022/09/04 03:45:51;;;;;;;68.70;61.13;;;;;;;;;;4892372;29;20633;-41
2022/09/04 03:48:17;;;;;;;62.33;55.77;;;;;;;;;;4897396;28;20192;-42
2022/09/04 03:50:50;;;;;;;62.37;55.60;;;;;;;;;;4893424;29;20464;-41
2022/09/04 03:53:26;;;;;;;59.37;52.60;;;;;;;;;;4891714;29;20598;-42
2022/09/04 03:55:52;;;;;;;58.73;52.57;;;;;;;;;;4895984;29;20188;-42
2022/09/04 03:58:18;;;;;;;61.27;54.67;;;;;;;;;;4894383;29;20199;-40
2022/09/04 04:01:02;;;;;;;60.20;53.87;;;;;;;;;;4889943;29;20263;-41
2022/09/04 04:03:32;;;;;;;58.23;52.07;;;;;;;;;;4895217;29;21069;-41
2022/09/04 04:06:05;;;;;;;66.33;53.03;;;;;;;;;;4893071;29;20191;-42
2022/09/04 04:08:49;;;;;;;68.53;56.03;;;;;;;;;;4894647;29;20465;-42
2022/09/04 04:11:35;;;;;;;58.77;51.57;;;;;;;;;;4891396;29;20631;-42
2022/09/04 04:14:20;;;;;;;74.93;58.60;;;;;;;;;;4894476;29;21026;-42
2022/09/04 04:16:46;;;;;;;64.40;53.40;;;;;;;;;;4895271;29;20438;-42
2022/09/04 04:19:24;;;;;;;71.27;54.93;;;;;;;;;;4890569;29;20220;-42
2022/09/04 04:21:56;;;;;;;72.20;56.47;;;;;;;;;;4896532;29;20880;-42
2022/09/04 04:24:40;;;;;;;59.83;53.40;;;;;;;;;;4895293;29;20299;-41
2022/09/04 04:27:25;;;;;;;70.60;56.57;;;;;;;;;;4898015;29;20684;-41
2022/09/04 04:29:54;;;;;;;65.43;57.40;;;;;;;;;;4899993;29;20202;-40
2022/09/04 04:32:39;;;;;;;61.13;52.37;;;;;;;;;;4900212;29;20577;-41
2022/09/04 04:35:10;;;;;;;59.17;52.67;;;;;;;;;;4902277;29;20206;-40
2022/09/04 04:37:50;;;;;;;57.43;51.30;;;;;;;;;;4895058;29;20461;-42
2022/09/04 04:40:19;;;;;;;63.23;54.23;;;;;;;;;;4892403;29;20183;-40
2022/09/04 04:42:53;;;;;;;63.33;52.90;;;;;;;;;;4895548;28;20770;-42
2022/09/04 04:48:13;;;;;;;56.30;50.30;;;;;;;;;;4896506;29;20740;-41
2022/09/04 04:50:39;;;;;;;60.10;52.70;;;;;;;;;;4895679;29;20187;-42
2022/09/04 04:53:17;;;;;;;62.47;53.77;;;;;;;;;;4893642;29;20643;-41
2022/09/04 04:55:59;;;;;;;59.47;52.90;;;;;;;;;;4896580;29;20557;-42
2022/09/04 04:58:36;;;;;;;58.37;52.00;;;;;;;;;;4896854;29;20578;-41
2022/09/04 05:01:08;;;;;;;55.70;49.70;;;;;;;;;;4900625;29;20176;-42
2022/09/04 05:03:42;;;;;;;66.13;56.60;;;;;;;;;;4894748;29;20616;-41
2022/09/04 05:06:14;;;;;;;78.70;64.13;;;;;;;;;;4899169;28;20184;-40
2022/09/04 05:08:44;;;;;;;73.97;61.77;;;;;;;;;;4894412;29;20188;-40
2022/09/04 05:11:18;;;;;;;72.43;62.03;;;;;;;;;;4896149;29;20185;-41
2022/09/04 05:14:03;;;;;;;69.27;60.07;;;;;;;;;;4896251;29;20180;-41
2022/09/04 05:16:48;;;;;;;69.03;59.30;;;;;;;;;;4897284;29;20188;-41
2022/09/04 05:19:23;;;;;;;67.50;58.70;;;;;;;;;;4895838;29;20341;-41
2022/09/04 05:22:01;;;;;;;73.97;62.83;;;;;;;;;;4897262;29;20588;-41
2022/09/04 05:24:44;;;;;;;70.20;61.03;;;;;;;;;;4894532;29;20780;-40
2022/09/04 05:27:19;;;;;;;73.43;65.00;;;;;;;;;;4898555;29;20231;-41
2022/09/04 05:29:50;;;;;;;69.87;61.83;;;;;;;;;;4894963;29;20243;-41
2022/09/04 05:32:33;;;;;;;69.83;60.10;;;;;;;;;;4894419;28;20187;-40
2022/09/04 05:35:03;;;;;;;73.63;63.37;;;;;;;;;;4898352;29;20689;-41
2022/09/04 05:37:37;;;;;;;62.67;53.73;;;;;;;;;;4898310;29;20318;-41
2022/09/04 05:40:03;;;;;;;57.90;51.30;;;;;;;;;;4911821;28;20429;-41
2022/09/04 05:42:48;;;;;;;54.67;47.47;;;;;;;;;;4892335;29;20392;-41
2022/09/04 05:45:20;;;;;;;50.90;45.53;;;;;;;;;;4898228;29;20169;-39
2022/09/04 05:47:58;;;;;;;54.97;49.00;;;;;;;;;;4897201;29;20184;-41
2022/09/04 05:50:45;;;;;;;57.03;48.37;;;;;;;;;;4892476;29;20632;-40
2022/09/04 05:53:30;;;;;;;51.77;46.17;;;;;;;;;;4896135;29;20179;-40
2022/09/04 05:55:59;;;;;;;50.33;44.83;;;;;;;;;;4895869;29;20191;-41
2022/09/04 05:58:34;;;;;;;53.53;47.83;;;;;;;;;;4893304;29;20290;-39
2022/09/04 06:01:06;;;;;;;50.77;44.13;;;;;;;;;;4899009;29;20815;-41
2022/09/04 06:03:45;;;;;;;53.97;48.07;;;;;;;;;;4894685;29;20398;-41
2022/09/04 06:06:21;;;;;;;49.93;44.53;;;;;;;;;;4894527;29;20266;-41
2022/09/04 06:09:05;;;;;;;43.43;38.80;;;;;;;;;;4896568;29;20328;-43
2022/09/04 06:11:48;;;;;;;43.93;39.23;;;;;;;;;;4896540;29;20180;-40
2022/09/04 06:14:33;;;;;;;42.63;38.17;;;;;;;;;;4895722;29;20259;-40
2022/09/04 06:17:14;;;;;;;43.07;38.47;;;;;;;;;;4895138;29;20243;-41
2022/09/04 06:19:59;;;;;;;44.17;39.50;;;;;;;;;;4897678;29;20188;-40
2022/09/04 06:22:25;;;;;;;48.83;41.00;;;;;;;;;;4895046;29;20624;-41
2022/09/04 06:24:57;;;;;;;47.53;42.63;;;;;;;;;;4857825;29;1148687;-40
2022/09/04 06:27:43;;;;;;;37.17;31.67;;;;;;;;;;4893889;29;20622;-41
2022/09/04 06:30:10;;;;;;;41.83;35.20;;;;;;;;;;4898150;28;20196;-42
2022/09/04 06:33:15;;;;;;;40.20;36.00;;;;;;;;;;4897805;29;20179;-42
2022/09/04 06:35:42;;;;;;;40.30;36.07;;;;;;;;;;4909419;28;20187;-42
2022/09/04 06:38:23;;;;;;;48.90;43.20;;;;;;;;;;4910051;28;20210;-41
2022/09/04 06:41:18;;;;;;;43.30;38.03;;;;;;;;;;4898405;28;20551;-41
2022/09/04 06:43:47;;;;;;;50.93;41.43;;;;;;;;;;4907626;28;20756;-41
2022/09/04 06:46:27;;;;;;;45.03;40.23;;;;;;;;;;4896213;29;20654;-43
2022/09/04 06:49:17;;;;;;;47.80;42.60;;;;;;;;;;4897825;29;20187;-41
2022/09/04 06:52:06;;;;;;;37.47;33.47;;;;;;;;;;4908341;28;20192;-42
2022/09/04 06:54:35;;;;;;;38.87;34.90;;;;;;;;;;4888961;28;20530;-42
2022/09/04 06:57:13;;;;;;;38.53;34.17;;;;;;;;;;4897016;29;20268;-42
2022/09/04 06:59:51;;;;;;;41.83;34.63;;;;;;;;;;4884809;29;20382;-41
2022/09/04 07:02:17;;;;;;;33.53;29.93;;;;;;;;;;4894046;29;20657;-42
2022/09/04 07:05:03;;;;;;;30.93;27.73;;;;;;;;;;4894594;29;20176;-43
2022/09/04 07:07:41;;;;;;;81.40;48.00;;;;;;;;;;4890420;29;20183;-43
2022/09/04 07:10:10;;;;;;;24.63;21.80;;;;;;;;;;4892543;29;20192;-42
2022/09/04 07:12:45;;;;;;;28.93;25.93;;;;;;;;;;4896788;29;20187;-42
2022/09/04 07:15:14;;;;;;;26.13;23.43;;;;;;;;;;4896986;29;20498;-43
2022/09/04 07:17:53;;;;;;;25.10;22.53;;;;;;;;;;4891837;29;20911;-43
2022/09/04 07:20:21;;;;;;;25.27;22.27;;;;;;;;;;4894669;29;20791;-43
2022/09/04 07:23:02;;;;;;;23.90;20.57;;;;;;;;;;4893200;29;20609;-43
2022/09/04 07:25:40;;;;;;;24.10;20.87;;;;;;;;;;4889204;29;21609;-43
2022/09/04 07:28:26;;;;;;;19.17;17.17;;;;;;;;;;4895143;29;20180;-42
2022/09/04 07:30:53;;;;;;;24.37;21.50;;;;;;;;;;4898767;29;20188;-43
2022/09/04 07:33:26;;;;;;;23.17;20.63;;;;;;;;;;4900211;28;20918;-43
2022/09/04 07:36:10;;;;;;;22.77;20.27;;;;;;;;;;4898998;29;20889;-43
2022/09/04 07:38:39;;;;;;;20.67;18.50;;;;;;;;;;4895783;29;20432;-43
2022/09/04 07:41:24;;;;;;;24.43;21.50;;;;;;;;;;4898491;29;20493;-43
2022/09/04 07:44:03;;;;;;;23.13;20.23;;;;;;;;;;4892237;29;20582;-43
2022/09/04 07:46:32;;;;;;;21.73;19.40;;;;;;;;;;4890500;29;20172;-44
2022/09/04 07:49:08;;;;;;;20.67;18.53;;;;;;;;;;4892285;29;20198;-43
2022/09/04 07:51:39;;;;;;;18.33;16.40;;;;;;;;;;4893507;29;20394;-43
2022/09/04 07:54:23;;;;;;;22.33;18.07;;;;;;;;;;4892752;29;21967;-43
2022/09/04 07:56:52;;;;;;;18.60;16.70;;;;;;;;;;4895534;29;20250;-43
2022/09/04 07:59:40;;;;;;;21.43;19.00;;;;;;;;;;4894976;29;20204;-43
2022/09/04 08:02:39;;;;;;;19.13;17.00;;;;;;;;;;4897436;29;20444;-44
2022/09/04 08:05:08;;;;;;;18.33;15.43;;;;;;;;;;4901028;28;20192;-43
2022/09/04 08:07:34;;;;;;;18.00;14.53;;;;;;;;;;4894595;29;20688;-43
2022/09/04 08:10:12;;;;;;;19.00;16.30;;;;;;;;;;4896130;29;20605;-42
2022/09/04 08:12:55;;;;;;;13.83;11.90;;;;;;;;;;4900753;29;20295;-43
2022/09/04 08:15:22;;;;;;;15.27;13.43;;;;;;;;;;4899087;29;20944;-43
2022/09/04 08:18:06;;;;;;;18.27;14.07;;;;;;;;;;4895702;29;20737;-43
2022/09/04 08:20:38;;;;;;;15.83;14.13;;;;;;;;;;4893938;29;20184;-44
2022/09/04 08:23:23;;;;;;;19.40;15.00;;;;;;;;;;4899716;28;20274;-44
2022/09/04 08:26:13;;;;;;;13.10;11.70;;;;;;;;;;4896512;29;20203;-43
2022/09/04 08:28:48;;;;;;;17.17;15.33;;;;;;;;;;4896468;28;20927;-43
2022/09/04 08:31:31;;;;;;;17.70;15.83;;;;;;;;;;4894334;29;20467;-43
2022/09/04 08:34:01;;;;;;;14.57;12.93;;;;;;;;;;4898685;28;20711;-43
2022/09/04 08:36:36;;;;;;;17.90;14.80;;;;;;;;;;4896547;29;20495;-43
2022/09/04 08:39:02;;;;;;;15.60;14.00;;;;;;;;;;4894410;29;20656;-43
2022/09/04 08:41:44;;;;;;;18.73;14.40;;;;;;;;;;4898627;29;20741;-44
2022/09/04 08:44:28;;;;;;;15.70;14.10;;;;;;;;;;4897713;29;20753;-43
2022/09/04 08:47:03;;;;;;;15.53;13.53;;;;;;;;;;4896983;29;20173;-44
2022/09/04 08:49:50;;;;;;;14.73;12.97;;;;;;;;;;4894057;29;20630;-42
2022/09/04 08:52:17;;;;;;;14.83;12.43;;;;;;;;;;4896082;29;20682;-43
2022/09/04 08:54:47;;;;;;;14.57;13.10;;;;;;;;;;4898889;29;20839;-42
2022/09/04 08:57:31;;;;;;;13.70;12.03;;;;;;;;;;4895264;29;20196;-42
2022/09/04 09:00:11;;;;;;;18.37;16.07;;;;;;;;;;4893968;29;20254;-43
2022/09/04 09:02:40;;;;;;;16.60;14.90;;;;;;;;;;4897839;29;20183;-43
2022/09/04 09:05:18;;;;;;;15.70;14.10;;;;;;;;;;4897649;29;21097;-43
2022/09/04 09:08:06;;;;;;;15.93;14.23;;;;;;;;;;4894099;29;20172;-44
2022/09/04 09:10:36;;;;;;;15.17;13.57;;;;;;;;;;4897937;29;20184;-42
2022/09/04 09:13:06;;;;;;;16.63;13.73;;;;;;;;;;4901489;29;20181;-42
2022/09/04 09:15:36;;;;;;;15.73;13.63;;;;;;;;;;4904756;29;20191;-40
2022/09/04 09:18:16;;;;;;;14.90;12.67;;;;;;;;;;4897742;29;20192;-40
2022/09/04 09:20:52;;;;;;;17.70;15.43;;;;;;;;;;4899096;29;20184;-42
2022/09/04 09:23:20;;;;;;;18.33;15.83;;;;;;;;;;4894985;29;20314;-43
2022/09/04 09:25:49;;;;;;;14.83;13.23;;;;;;;;;;4894706;29;20186;-42
2022/09/04 09:28:47;;;;;;;15.17;12.37;;;;;;;;;;4901567;29;20630;-41
2022/09/04 09:31:20;;;;;;;13.73;12.33;;;;;;;;;;4920823;28;20196;-42
2022/09/04 09:34:09;;;;;;;12.77;11.53;;;;;;;;;;4899604;29;20650;-41
2022/09/04 09:36:44;;;;;;;14.67;13.17;;;;;;;;;;4898637;29;20202;-41
2022/09/04 09:39:29;;;;;;;13.80;12.30;;;;;;;;;;4900537;28;20426;-42
2022/09/04 09:42:25;;;;;;;12.47;10.33;;;;;;;;;;4900194;29;20624;-41
2022/09/04 09:44:53;;;;;;;12.37;10.90;;;;;;;;;;4912189;28;20410;-41
2022/09/04 09:47:32;;;;;;;16.93;12.50;;;;;;;;;;4897660;29;20189;-40
2022/09/04 09:50:29;;;;;;;12.33;10.97;;;;;;;;;;4900699;29;20268;-41
2022/09/04 09:53:07;;;;;;;15.23;10.93;;;;;;;;;;4901318;29;20455;-42
2022/09/04 09:55:43;;;;;;;15.43;13.77;;;;;;;;;;4897932;29;20585;-42
2022/09/04 09:58:28;;;;;;;12.47;11.20;;;;;;;;;;4899170;29;21031;-42
2022/09/04 10:00:58;;;;;;;15.87;12.53;;;;;;;;;;4901020;29;20184;-41
2022/09/04 10:03:39;;;;;;;13.30;11.80;;;;;;;;;;4901800;29;20581;-42
2022/09/04 10:06:32;;;;;;;15.00;12.97;;;;;;;;;;4899666;29;20200;-42
2022/09/04 10:09:16;;;;;;;11.57;10.27;;;;;;;;;;4896665;29;21201;-42
2022/09/04 10:11:57;;;;;;;13.50;12.10;;;;;;;;;;4902806;29;20225;-41
2022/09/04 10:14:33;;;;;;;10.90;9.80;;;;;;;;;;4900752;29;20733;-42
2022/09/04 10:17:05;;;;;;;11.43;9.80;;;;;;;;;;4900183;29;20602;-42
2022/09/04 10:19:50;;;;;;;12.03;9.77;;;;;;;;;;4899450;29;20804;-42
2022/09/04 10:22:35;;;;;;;10.30;9.20;;;;;;;;;;4899169;29;20495;-42
2022/09/04 10:25:04;;;;;;;10.93;8.27;;;;;;;;;;4898104;29;20301;-40
2022/09/04 10:27:42;;;;;;;12.07;10.87;;;;;;;;;;4895514;29;20267;-42
2022/09/04 10:30:08;;;;;;;9.60;8.53;;;;;;;;;;4895979;28;20237;-40
2022/09/04 10:32:53;;;;;;;10.20;8.47;;;;;;;;;;4897554;29;20188;-41
2022/09/04 10:35:35;;;;;;;8.47;7.03;;;;;;;;;;4897007;29;20191;-42
2022/09/04 10:38:20;;;;;;;11.10;8.87;;;;;;;;;;4896578;29;20211;-42
2022/09/04 10:40:49;;;;;;;8.57;7.17;;;;;;;;;;4900160;29;20183;-42
2022/09/04 10:43:24;;;;;;;8.13;7.33;;;;;;;;;;4902595;29;20173;-41
2022/09/04 10:45:50;;;;;;;9.67;7.40;;;;;;;;;;4897959;29;20172;-42
2022/09/04 10:48:21;;;;;;;7.80;6.17;;;;;;;;;;4896190;29;20180;-41
2022/09/04 10:50:55;;;;;;;6.00;5.50;;;;;;;;;;4897387;29;20266;-42
2022/09/04 10:53:27;;;;;;;8.07;7.23;;;;;;;;;;4897341;29;21065;-42
2022/09/04 10:55:53;;;;;;;10.37;8.13;;;;;;;;;;4893513;29;20192;-42
2022/09/04 10:58:38;;;;;;;9.50;7.83;;;;;;;;;;4897719;29;20196;-42
2022/09/04 11:01:14;;;;;;;8.73;7.00;;;;;;;;;;4899968;29;21025;-42
2022/09/04 11:03:43;;;;;;;6.80;6.10;;;;;;;;;;4895258;29;20896;-42
2022/09/04 11:06:28;;;;;;;7.03;5.00;;;;;;;;;;4899598;29;20258;-42
2022/09/04 11:09:00;;;;;;;6.93;5.40;;;;;;;;;;4891520;29;20187;-42
2022/09/04 11:11:31;;;;;;;9.60;6.73;;;;;;;;;;4892376;29;20186;-42
2022/09/04 11:14:08;;;;;;;7.87;6.30;;;;;;;;;;4899490;29;20175;-42
2022/09/04 11:16:37;;;;;;;7.23;6.40;;;;;;;;;;4897017;29;20303;-42
2022/09/04 11:19:22;;;;;;;7.67;6.73;;;;;;;;;;4895893;29;20577;-42
2022/09/04 11:21:55;;;;;;;9.20;7.60;;;;;;;;;;4892096;29;20184;-43
2022/09/04 11:24:24;;;;;;;8.07;6.30;;;;;;;;;;4889316;29;20204;-42
2022/09/04 11:27:06;;;;;;;6.37;5.60;;;;;;;;;;4892548;29;23429;-42
2022/09/04 11:29:32;;;;;;;7.40;5.73;;;;;;;;;;4891593;29;20181;-42
2022/09/04 11:31:58;;;;;;;5.83;5.23;;;;;;;;;;4888032;29;20181;-43
2022/09/04 11:34:44;;;;;;;5.53;4.80;;;;;;;;;;4890387;29;20251;-43
2022/09/04 11:37:16;;;;;;;6.27;4.63;;;;;;;;;;4899125;28;20480;-43
2022/09/04 11:39:51;;;;;;;8.03;5.60;;;;;;;;;;4895134;29;21212;-43
2022/09/04 11:42:19;;;;;;;6.73;4.93;;;;;;;;;;4895557;29;20180;-42
2022/09/04 11:44:45;;;;;;;9.40;4.70;;;;;;;;;;4894788;29;20184;-41
2022/09/04 11:47:30;;;;;;;7.10;5.07;;;;;;;;;;4897579;29;20237;-43
2022/09/04 11:50:02;;;;;;;6.00;4.43;;;;;;;;;;4897844;29;20184;-43
2022/09/04 11:52:47;;;;;;;5.67;4.30;;;;;;;;;;4892767;29;20180;-43
2022/09/04 11:55:13;;;;;;;5.33;4.20;;;;;;;;;;4893943;29;20207;-43
2022/09/04 11:57:39;;;;;;;4.70;4.30;;;;;;;;;;4891330;29;20184;-42
2022/09/04 12:00:10;;;;;;;6.50;5.00;;;;;;;;;;4895811;29;20184;-42
2022/09/04 12:02:49;;;;;;;8.60;4.97;;;;;;;;;;4894320;29;20665;-41
2022/09/04 12:05:19;;;;;;;6.73;4.43;;;;;;;;;;4889388;29;20203;-42
2022/09/04 12:08:03;;;;;;;7.17;4.20;;;;;;;;;;4890911;29;20223;-43
2022/09/04 12:10:30;;;;;;;4.73;4.13;;;;;;;;;;4885507;29;20526;-41
2022/09/04 12:13:14;;;;;;;5.60;4.10;;;;;;;;;;4890629;28;20753;-43
2022/09/04 12:15:59;;;;;;;4.73;4.10;;;;;;;;;;4890700;29;20776;-43
2022/09/04 12:18:44;;;;;;;8.03;4.70;;;;;;;;;;4889112;29;20773;-42
2022/09/04 12:21:14;;;;;;;5.10;4.60;;;;;;;;;;4890119;29;20177;-42
2022/09/04 12:23:49;;;;;;;4.20;3.80;;;;;;;;;;4890600;29;20229;-42
2022/09/04 12:26:25;;;;;;;8.13;4.20;;;;;;;;;;4887399;29;20179;-43
2022/09/04 12:29:04;;;;;;;4.90;4.00;;;;;;;;;;4880609;29;20767;-42
2022/09/04 12:31:50;;;;;;;7.60;4.33;;;;;;;;;;4882982;29;21170;-43
2022/09/04 12:34:19;;;;;;;5.03;3.40;;;;;;;;;;4885300;29;20262;-43
2022/09/04 12:37:18;;;;;;;4.63;4.00;;;;;;;;;;4884571;29;20494;-42
2022/09/04 12:40:03;;;;;;;4.27;3.80;;;;;;;;;;4891410;28;20988;-43
2022/09/04 12:42:32;;;;;;;6.90;4.13;;;;;;;;;;4892588;29;20190;-43
2022/09/04 12:44:58;;;;;;;4.47;3.60;;;;;;;;;;4886814;28;21025;-43
2022/09/04 12:47:34;;;;;;;8.13;3.67;;;;;;;;;;4888413;29;20679;-42
2022/09/04 12:50:08;;;;;;;4.33;3.93;;;;;;;;;;4904081;28;20219;-43
2022/09/04 12:53:06;;;;;;;5.17;3.80;;;;;;;;;;4888305;29;20184;-42
2022/09/04 12:55:45;;;;;;;5.90;3.93;;;;;;;;;;4904158;28;20204;-43
2022/09/04 12:58:25;;;;;;;5.37;4.17;;;;;;;;;;4891728;29;20197;-43
2022/09/04 13:01:09;;;;;;;5.40;4.10;;;;;;;;;;4885324;29;20616;-43
2022/09/04 13:03:38;;;;;;;5.27;3.70;;;;;;;;;;4883434;29;20306;-43
2022/09/04 13:06:24;;;;;;;3.70;3.20;;;;;;;;;;4898235;28;20176;-43
2022/09/04 13:08:54;;;;;;;4.87;3.50;;;;;;;;;;4891697;29;20184;-43
2022/09/04 13:11:39;;;;;;;4.60;3.33;;;;;;;;;;4892044;29;20188;-43
2022/09/04 13:14:28;;;;;;;3.83;3.50;;;;;;;;;;4893946;29;20266;-43
2022/09/04 13:16:57;;;;;;;4.80;3.23;;;;;;;;;;4898043;29;20825;-43
2022/09/04 13:19:45;;;;;;;6.23;3.93;;;;;;;;;;4895519;29;20387;-41
2022/09/04 13:22:38;;;;;;;3.40;3.10;;;;;;;;;;4891577;29;20176;-42
2022/09/04 13:25:13;;;;;;;4.13;3.10;;;;;;;;;;4899760;28;20662;-43
2022/09/04 13:27:48;;;;;;;4.03;3.13;;;;;;;;;;4897379;29;20231;-42
2022/09/04 13:30:24;;;;;;;5.73;3.57;;;;;;;;;;4908832;28;20268;-43
2022/09/04 13:32:56;;;;;;;3.53;3.00;;;;;;;;;;4898653;29;20226;-43
2022/09/04 13:35:31;;;;;;;3.30;3.00;;;;;;;;;;4902558;29;21089;-43
2022/09/04 13:38:03;;;;;;;3.57;2.93;;;;;;;;;;4899306;29;20716;-43
2022/09/04 13:40:29;;;;;;;4.43;3.10;;;;;;;;;;4895245;28;20978;-43
2022/09/04 13:43:02;;;;;;;3.10;2.80;;;;;;;;;;4892333;29;20180;-43
2022/09/04 13:45:30;;;;;;;8.10;3.00;;;;;;;;;;4888847;29;20464;-43
2022/09/04 13:48:00;;;;;;;3.70;2.90;;;;;;;;;;4893435;29;20331;-43
2022/09/04 13:50:26;;;;;;;6.27;3.00;;;;;;;;;;4884601;28;20247;-43
2022/09/04 13:53:09;;;;;;;4.27;2.90;;;;;;;;;;4890789;29;20416;-43
2022/09/04 13:55:40;;;;;;;3.00;2.70;;;;;;;;;;4887154;29;20227;-43
2022/09/04 13:58:19;;;;;;;5.03;2.67;;;;;;;;;;4895591;29;20220;-43
2022/09/04 14:00:48;;;;;;;12.17;3.43;;;;;;;;;;4892247;29;20263;-43
2022/09/04 14:03:23;;;;;;;3.23;2.67;;;;;;;;;;4890434;29;20188;-43
2022/09/04 14:05:49;;;;;;;4.97;2.97;;;;;;;;;;4892709;29;20661;-43
2022/09/04 14:08:16;;;;;;;5.80;3.23;;;;;;;;;;4895104;29;20303;-43
2022/09/04 14:11:04;;;;;;;4.63;3.00;;;;;;;;;;4890510;29;20203;-42
2022/09/04 14:13:30;;;;;;;3.80;2.50;;;;;;;;;;4886184;29;20346;-43
2022/09/04 14:16:00;;;;;;;5.67;2.83;;;;;;;;;;4889173;29;20735;-44
2022/09/04 14:18:26;;;;;;;4.00;2.90;;;;;;;;;;4895358;29;20319;-41
2022/09/04 14:20:57;;;;;;;3.80;2.50;;;;;;;;;;4889613;29;20176;-42
2022/09/04 14:23:29;;;;;;;2.60;2.23;;;;;;;;;;4889017;29;20672;-43
2022/09/04 14:26:03;;;;;;;2.83;2.57;;;;;;;;;;4891028;29;20246;-43
2022/09/04 14:28:49;;;;;;;3.00;2.70;;;;;;;;;;4881902;29;20184;-43
2022/09/04 14:31:22;;;;;;;3.37;2.50;;;;;;;;;;4891430;28;20192;-43
2022/09/04 14:34:06;;;;;;;4.03;2.67;;;;;;;;;;4888871;29;20184;-43
2022/09/04 14:36:37;;;;;;;3.70;2.50;;;;;;;;;;4890244;29;20727;-42
2022/09/04 14:39:22;;;;;;;4.27;2.30;;;;;;;;;;4892921;29;20204;-43
2022/09/04 14:41:57;;;;;;;2.90;2.30;;;;;;;;;;4888015;29;20633;-43
2022/09/04 14:44:37;;;;;;;4.20;2.40;;;;;;;;;;4888250;28;20187;-42
2022/09/04 14:47:08;;;;;;;3.87;2.40;;;;;;;;;;4891091;29;20188;-43
2022/09/04 14:49:40;;;;;;;4.17;2.27;;;;;;;;;;4901621;28;20188;-43
2022/09/04 14:52:29;;;;;;;2.57;2.17;;;;;;;;;;4910637;28;20456;-42
2022/09/04 14:54:56;;;;;;;3.37;2.60;;;;;;;;;;4922501;28;20562;-43
2022/09/04 14:57:29;;;;;;;5.70;2.20;;;;;;;;;;4889881;29;20180;-42
2022/09/04 15:00:01;;;;;;;2.27;1.90;;;;;;;;;;4893945;29;20310;-41
2022/09/04 15:02:36;;;;;;;2.70;2.20;;;;;;;;;;4887885;28;20274;-42
2022/09/04 15:05:11;;;;;;;4.77;2.47;;;;;;;;;;4890543;29;20562;-41
2022/09/04 15:07:45;;;;;;;4.83;2.27;;;;;;;;;;4886938;29;20184;-41
2022/09/04 15:10:30;;;;;;;2.43;2.10;;;;;;;;;;4892563;29;20415;-41
2022/09/04 15:12:59;;;;;;;4.90;2.30;;;;;;;;;;4893087;29;20199;-42
2022/09/04 15:15:35;;;;;;;2.97;2.23;;;;;;;;;;4887867;28;20906;-41
2022/09/04 15:18:03;;;;;;;2.97;2.17;;;;;;;;;;4890790;29;20219;-41
2022/09/04 15:20:31;;;;;;;3.63;2.10;;;;;;;;;;4889921;28;20345;-43